sensor_id;sensor_type;location;lat;lon;timestamp;pressure;altitude;pressure_sealevel;temperature;humidity
74621;BME280;64861;47.546;19.254;2022-12-07T00:01:36;99087.75;;;22.09;55.92
74621;BME280;64861;47.546;19.254;2022-12-07T00:04:04;99083.63;;;22.06;55.61
74621;BME280;64861;47.546;19.254;2022-12-07T00:06:36;99081.31;;;22.03;55.47
74621;BME280;64861;47.546;19.254;2022-12-07T00:09:03;99084.78;;;22.03;55.24
74621;BME280;64861;47.546;19.254;2022-12-07T00:11:28;99079.81;;;22.00;55.29
74621;BME280;64861;47.546;19.254;2022-12-07T00:13:56;99075.50;;;21.99;55.07
74621;BME280;64861;47.546;19.254;2022-12-07T00:16:25;99073.00;;;21.98;54.71
74621;BME280;64861;47.546;19.254;2022-12-07T00:18:50;99063.38;;;21.97;55.13
74621;BME280;64861;47.546;19.254;2022-12-07T00:21:22;99067.88;;;21.96;54.54
74621;BME280;64861;47.546;19.254;2022-12-07T00:23:49;99060.06;;;21.95;54.75
74621;BME280;64861;47.546;19.254;2022-12-07T00:26:18;99063.72;;;21.94;54.42
74621;BME280;64861;47.546;19.254;2022-12-07T00:28:48;99057.75;;;21.92;52.61
74621;BME280;64861;47.546;19.254;2022-12-07T00:31:15;99050.31;;;21.87;52.91
74621;BME280;64861;47.546;19.254;2022-12-07T00:33:41;99049.28;;;21.88;52.97
74621;BME280;64861;47.546;19.254;2022-12-07T00:36:10;99048.19;;;21.83;54.29
74621;BME280;64861;47.546;19.254;2022-12-07T00:38:37;99049.66;;;21.85;53.40
74621;BME280;64861;47.546;19.254;2022-12-07T00:41:10;99037.34;;;21.84;52.82
74621;BME280;64861;47.546;19.254;2022-12-07T00:43:36;99039.19;;;21.84;52.55
74621;BME280;64861;47.546;19.254;2022-12-07T00:46:02;99042.88;;;21.83;52.44
74621;BME280;64861;47.546;19.254;2022-12-07T00:48:28;99037.91;;;21.79;53.67
74621;BME280;64861;47.546;19.254;2022-12-07T00:50:53;99047.22;;;21.75;53.49
74621;BME280;64861;47.546;19.254;2022-12-07T00:53:19;99039.38;;;21.82;51.69
74621;BME280;64861;47.546;19.254;2022-12-07T00:55:45;99034.06;;;21.82;52.07
74621;BME280;64861;47.546;19.254;2022-12-07T00:58:11;99034.69;;;21.84;52.16
74621;BME280;64861;47.546;19.254;2022-12-07T01:00:38;99040.38;;;21.81;51.92
74621;BME280;64861;47.546;19.254;2022-12-07T01:03:05;99039.91;;;21.77;52.84
74621;BME280;64861;47.546;19.254;2022-12-07T01:05:31;99040.84;;;21.85;51.53
74621;BME280;64861;47.546;19.254;2022-12-07T01:07:56;99039.00;;;21.85;51.56
74621;BME280;64861;47.546;19.254;2022-12-07T01:10:22;99032.69;;;21.86;52.04
74621;BME280;64861;47.546;19.254;2022-12-07T01:12:47;99038.66;;;21.88;50.91
74621;BME280;64861;47.546;19.254;2022-12-07T01:15:13;99032.50;;;21.88;51.17
74621;BME280;64861;47.546;19.254;2022-12-07T01:17:38;99027.19;;;21.88;50.86
74621;BME280;64861;47.546;19.254;2022-12-07T01:20:05;99033.63;;;21.93;50.53
74621;BME280;64861;47.546;19.254;2022-12-07T01:22:30;99032.97;;;21.91;51.84
74621;BME280;64861;47.546;19.254;2022-12-07T01:24:56;99025.34;;;21.88;50.99
74621;BME280;64861;47.546;19.254;2022-12-07T01:27:21;99024.19;;;21.91;50.58
74621;BME280;64861;47.546;19.254;2022-12-07T01:29:47;99029.84;;;21.88;50.49
74621;BME280;64861;47.546;19.254;2022-12-07T01:32:12;99031.53;;;21.89;50.66
74621;BME280;64861;47.546;19.254;2022-12-07T01:34:38;99026.38;;;21.87;50.65
74621;BME280;64861;47.546;19.254;2022-12-07T01:37:03;99021.25;;;21.86;49.98
74621;BME280;64861;47.546;19.254;2022-12-07T01:39:29;99034.00;;;21.90;50.28
74621;BME280;64861;47.546;19.254;2022-12-07T01:41:54;99039.97;;;21.92;50.27
74621;BME280;64861;47.546;19.254;2022-12-07T01:44:25;99034.00;;;21.90;50.17
74621;BME280;64861;47.546;19.254;2022-12-07T01:47:02;99022.06;;;21.86;50.24
74621;BME280;64861;47.546;19.254;2022-12-07T01:49:37;99027.84;;;21.90;49.88
74621;BME280;64861;47.546;19.254;2022-12-07T01:54:44;99025.69;;;21.85;49.90
74621;BME280;64861;47.546;19.254;2022-12-07T01:57:11;99022.41;;;21.83;50.58
74621;BME280;64861;47.546;19.254;2022-12-07T01:59:39;99020.09;;;21.80;50.49
74621;BME280;64861;47.546;19.254;2022-12-07T02:02:10;99018.75;;;21.84;49.80
74621;BME280;64861;47.546;19.254;2022-12-07T02:04:37;99012.59;;;21.84;49.88
74621;BME280;64861;47.546;19.254;2022-12-07T02:07:03;99012.13;;;21.80;50.36
74621;BME280;64861;47.546;19.254;2022-12-07T02:09:30;99017.59;;;21.78;50.06
74621;BME280;64861;47.546;19.254;2022-12-07T02:11:55;99013.75;;;21.81;49.95
74621;BME280;64861;47.546;19.254;2022-12-07T02:14:21;99008.91;;;21.85;49.48
74621;BME280;64861;47.546;19.254;2022-12-07T02:19:58;99022.41;;;21.83;49.26
74621;BME280;64861;47.546;19.254;2022-12-07T02:22:39;99020.09;;;21.80;49.59
74621;BME280;64861;47.546;19.254;2022-12-07T02:25:33;99010.94;;;21.83;49.21
74621;BME280;64861;47.546;19.254;2022-12-07T02:30:45;99005.31;;;21.77;49.03
74621;BME280;64861;47.546;19.254;2022-12-07T02:33:17;99008.44;;;21.81;49.19
74621;BME280;64861;47.546;19.254;2022-12-07T02:35:52;99004.97;;;21.80;49.60
74621;BME280;64861;47.546;19.254;2022-12-07T02:38:35;99009.47;;;21.80;49.61
74621;BME280;64861;47.546;19.254;2022-12-07T02:41:07;99006.81;;;21.80;49.27
74621;BME280;64861;47.546;19.254;2022-12-07T02:43:39;99007.94;;;21.86;48.71
74621;BME280;64861;47.546;19.254;2022-12-07T02:46:17;99014.78;;;21.80;48.98
74621;BME280;64861;47.546;19.254;2022-12-07T02:48:45;99017.09;;;21.83;48.82
74621;BME280;64861;47.546;19.254;2022-12-07T02:51:11;99012.78;;;21.82;48.90
74621;BME280;64861;47.546;19.254;2022-12-07T02:53:42;99009.09;;;21.83;48.75
74621;BME280;64861;47.546;19.254;2022-12-07T03:01:36;99009.09;;;21.83;48.79
74621;BME280;64861;47.546;19.254;2022-12-07T03:07:06;99011.31;;;21.79;48.59
74621;BME280;64861;47.546;19.254;2022-12-07T03:09:44;99005.16;;;21.79;48.88
74621;BME280;64861;47.546;19.254;2022-12-07T03:12:17;99000.47;;;21.81;49.04
74621;BME280;64861;47.546;19.254;2022-12-07T03:14:50;99001.28;;;21.81;48.68
74621;BME280;64861;47.546;19.254;2022-12-07T03:17:29;99003.13;;;21.81;48.74
74621;BME280;64861;47.546;19.254;2022-12-07T03:19:59;98996.50;;;21.77;49.34
74621;BME280;64861;47.546;19.254;2022-12-07T03:22:29;98996.19;;;21.72;49.13
74621;BME280;64861;47.546;19.254;2022-12-07T03:25:04;98997.69;;;21.74;48.45
74621;BME280;64861;47.546;19.254;2022-12-07T03:28:02;98991.00;;;21.78;48.32
74621;BME280;64861;47.546;19.254;2022-12-07T03:30:39;98986.88;;;21.76;48.79
74621;BME280;64861;47.546;19.254;2022-12-07T03:33:12;98989.56;;;21.76;48.50
74621;BME280;64861;47.546;19.254;2022-12-07T03:35:51;98997.53;;;21.76;48.86
74621;BME280;64861;47.546;19.254;2022-12-07T03:41:05;98993.84;;;21.77;48.57
74621;BME280;64861;47.546;19.254;2022-12-07T03:43:34;98991.19;;;21.77;48.53
74621;BME280;64861;47.546;19.254;2022-12-07T03:51:48;98996.66;;;21.75;48.43
74621;BME280;64861;47.546;19.254;2022-12-07T03:54:51;98993.50;;;21.80;48.06
74621;BME280;64861;47.546;19.254;2022-12-07T03:57:19;98997.34;;;21.77;48.61
74621;BME280;64861;47.546;19.254;2022-12-07T03:59:47;99004.97;;;21.80;48.31
74621;BME280;64861;47.546;19.254;2022-12-07T04:02:13;99009.28;;;21.81;47.82
74621;BME280;64861;47.546;19.254;2022-12-07T04:04:39;99018.47;;;21.79;48.06
74621;BME280;64861;47.546;19.254;2022-12-07T04:07:05;99013.97;;;21.79;48.19
74621;BME280;64861;47.546;19.254;2022-12-07T04:09:30;99019.56;;;21.85;47.82
74621;BME280;64861;47.546;19.254;2022-12-07T04:11:56;99012.59;;;21.84;48.07
74621;BME280;64861;47.546;19.254;2022-12-07T04:14:21;99030.75;;;21.80;48.49
74621;BME280;64861;47.546;19.254;2022-12-07T04:16:49;99015.97;;;21.77;47.63
74621;BME280;64861;47.546;19.254;2022-12-07T04:19:15;99014.78;;;21.80;47.90
74621;BME280;64861;47.546;19.254;2022-12-07T04:21:41;99015.34;;;21.67;48.45
74621;BME280;64861;47.546;19.254;2022-12-07T04:24:06;99012.16;;;21.72;48.41
74621;BME280;64861;47.546;19.254;2022-12-07T04:26:32;99019.78;;;21.75;47.81
74621;BME280;64861;47.546;19.254;2022-12-07T04:28:57;99018.25;;;21.80;47.71
74621;BME280;64861;47.546;19.254;2022-12-07T04:31:23;99017.44;;;21.80;47.45
74621;BME280;64861;47.546;19.254;2022-12-07T04:33:48;99021.81;;;21.73;48.22
74621;BME280;64861;47.546;19.254;2022-12-07T04:36:14;99017.78;;;21.77;47.95
74621;BME280;64861;47.546;19.254;2022-12-07T04:38:39;99011.81;;;21.75;48.39
74621;BME280;64861;47.546;19.254;2022-12-07T04:41:08;99015.13;;;21.77;47.87
74621;BME280;64861;47.546;19.254;2022-12-07T04:43:34;99014.94;;;21.78;48.04
74621;BME280;64861;47.546;19.254;2022-12-07T04:46:00;99013.28;;;21.77;47.67
74621;BME280;64861;47.546;19.254;2022-12-07T04:48:25;99015.25;;;21.84;48.52
74621;BME280;64861;47.546;19.254;2022-12-07T04:50:51;99011.47;;;21.78;47.99
74621;BME280;64861;47.546;19.254;2022-12-07T04:53:16;99010.94;;;21.83;47.65
74621;BME280;64861;47.546;19.254;2022-12-07T04:55:42;99015.97;;;21.77;48.03
74621;BME280;64861;47.546;19.254;2022-12-07T04:58:08;99009.16;;;21.75;47.99
74621;BME280;64861;47.546;19.254;2022-12-07T05:00:34;99013.28;;;21.77;47.56
74621;BME280;64861;47.546;19.254;2022-12-07T05:02:59;99003.47;;;21.78;48.17
74621;BME280;64861;47.546;19.254;2022-12-07T05:05:24;99004.84;;;21.74;47.66
74621;BME280;64861;47.546;19.254;2022-12-07T05:07:50;99002.72;;;21.69;48.10
74621;BME280;64861;47.546;19.254;2022-12-07T05:10:16;99000.34;;;21.74;47.98
74621;BME280;64861;47.546;19.254;2022-12-07T05:12:41;98998.16;;;21.78;47.83
74621;BME280;64861;47.546;19.254;2022-12-07T05:15:07;99000.31;;;21.83;47.70
74621;BME280;64861;47.546;19.254;2022-12-07T05:17:33;98994.88;;;21.76;47.86
74621;BME280;64861;47.546;19.254;2022-12-07T05:19:58;98994.88;;;21.76;48.19
74621;BME280;64861;47.546;19.254;2022-12-07T05:22:23;98998.34;;;21.76;48.05
74621;BME280;64861;47.546;19.254;2022-12-07T05:24:53;98995.84;;;21.75;48.38
74621;BME280;64861;47.546;19.254;2022-12-07T05:27:19;98987.06;;;21.74;48.49
74621;BME280;64861;47.546;19.254;2022-12-07T05:29:44;98982.56;;;21.75;48.24
74621;BME280;64861;47.546;19.254;2022-12-07T05:32:10;98989.25;;;21.71;48.40
74621;BME280;64861;47.546;19.254;2022-12-07T05:34:35;98989.91;;;21.73;48.28
74621;BME280;64861;47.546;19.254;2022-12-07T05:37:00;98984.22;;;21.76;47.99
74621;BME280;64861;47.546;19.254;2022-12-07T05:39:26;98990.84;;;21.80;47.74
74621;BME280;64861;47.546;19.254;2022-12-07T05:41:51;98980.59;;;21.69;48.19
74621;BME280;64861;47.546;19.254;2022-12-07T05:44:35;98992.72;;;21.71;48.56
74621;BME280;64861;47.546;19.254;2022-12-07T05:47:01;98995.84;;;21.75;48.22
74621;BME280;64861;47.546;19.254;2022-12-07T05:49:26;98991.53;;;21.74;48.08
74621;BME280;64861;47.546;19.254;2022-12-07T05:51:51;99001.63;;;21.78;47.65
74621;BME280;64861;47.546;19.254;2022-12-07T05:54:17;99001.28;;;21.81;47.55
74621;BME280;64861;47.546;19.254;2022-12-07T05:56:42;99005.63;;;21.83;47.54
74621;BME280;64861;47.546;19.254;2022-12-07T05:59:08;99003.94;;;21.81;47.30
74621;BME280;64861;47.546;19.254;2022-12-07T06:01:58;99008.16;;;21.76;48.06
74621;BME280;64861;47.546;19.254;2022-12-07T06:04:25;99004.03;;;21.73;48.43
74621;BME280;64861;47.546;19.254;2022-12-07T06:06:51;99007.31;;;21.75;47.46
74621;BME280;64861;47.546;19.254;2022-12-07T06:09:17;99006.81;;;21.80;47.63
74621;BME280;64861;47.546;19.254;2022-12-07T06:11:46;99008.44;;;21.81;47.73
74621;BME280;64861;47.546;19.254;2022-12-07T06:14:30;99001.38;;;21.73;48.22
74621;BME280;64861;47.546;19.254;2022-12-07T06:16:56;99000.19;;;21.76;47.70
74621;BME280;64861;47.546;19.254;2022-12-07T06:19:21;99005.50;;;21.76;47.98
74621;BME280;64861;47.546;19.254;2022-12-07T06:21:47;99008.81;;;21.78;47.33
74621;BME280;64861;47.546;19.254;2022-12-07T06:24:13;99006.69;;;21.73;48.08
74621;BME280;64861;47.546;19.254;2022-12-07T06:26:39;99008.41;;;21.66;48.07
74621;BME280;64861;47.546;19.254;2022-12-07T06:29:05;99004.19;;;21.72;47.73
74621;BME280;64861;47.546;19.254;2022-12-07T06:31:31;99007.97;;;21.77;47.42
74621;BME280;64861;47.546;19.254;2022-12-07T06:34:01;99009.81;;;21.77;47.77
74621;BME280;64861;47.546;19.254;2022-12-07T06:36:28;99013.75;;;21.81;47.52
74621;BME280;64861;47.546;19.254;2022-12-07T06:38:54;99013.28;;;21.77;47.65
74621;BME280;64861;47.546;19.254;2022-12-07T06:41:20;99011.66;;;21.76;47.15
74621;BME280;64861;47.546;19.254;2022-12-07T06:43:46;99012.47;;;21.77;47.09
74621;BME280;64861;47.546;19.254;2022-12-07T06:46:12;99014.94;;;21.78;47.11
74621;BME280;64861;47.546;19.254;2022-12-07T06:48:37;99011.81;;;21.75;47.61
74621;BME280;64861;47.546;19.254;2022-12-07T06:51:03;99011.81;;;21.75;47.31
74621;BME280;64861;47.546;19.254;2022-12-07T06:53:28;99006.81;;;21.80;47.38
74621;BME280;64861;47.546;19.254;2022-12-07T06:55:54;99006.59;;;21.81;47.09
74621;BME280;64861;47.546;19.254;2022-12-07T06:58:19;99009.81;;;21.77;47.57
74621;BME280;64861;47.546;19.254;2022-12-07T07:00:45;99007.97;;;21.77;47.71
74621;BME280;64861;47.546;19.254;2022-12-07T07:03:10;99017.00;;;21.68;47.75
74621;BME280;64861;47.546;19.254;2022-12-07T07:05:36;99016.84;;;21.70;48.18
74621;BME280;64861;47.546;19.254;2022-12-07T07:08:02;99019.28;;;21.79;48.06
74621;BME280;64861;47.546;19.254;2022-12-07T07:10:27;99018.50;;;21.71;47.79
74621;BME280;64861;47.546;19.254;2022-12-07T07:12:53;99019.63;;;21.76;47.50
74621;BME280;64861;47.546;19.254;2022-12-07T07:15:18;99023.66;;;21.72;47.73
74621;BME280;64861;47.546;19.254;2022-12-07T07:17:44;99020.44;;;21.77;47.50
74621;BME280;64861;47.546;19.254;2022-12-07T07:20:10;99017.31;;;21.73;47.56
74621;BME280;64861;47.546;19.254;2022-12-07T07:22:35;99027.84;;;21.67;48.11
74621;BME280;64861;47.546;19.254;2022-12-07T07:25:01;99025.19;;;21.67;47.56
74621;BME280;64861;47.546;19.254;2022-12-07T07:27:26;99018.81;;;21.76;47.54
74621;BME280;64861;47.546;19.254;2022-12-07T07:29:52;99024.75;;;21.78;47.43
74621;BME280;64861;47.546;19.254;2022-12-07T07:32:17;99026.44;;;21.79;47.19
74621;BME280;64861;47.546;19.254;2022-12-07T07:34:42;99022.44;;;21.75;47.52
74621;BME280;64861;47.546;19.254;2022-12-07T07:37:08;99019.78;;;21.75;47.72
74621;BME280;64861;47.546;19.254;2022-12-07T07:39:33;99022.28;;;21.76;47.28
74621;BME280;64861;47.546;19.254;2022-12-07T07:41:59;99019.78;;;21.75;48.00
74621;BME280;64861;47.546;19.254;2022-12-07T07:44:24;99012.47;;;21.77;47.38
74621;BME280;64861;47.546;19.254;2022-12-07T07:46:49;99019.31;;;21.71;47.45
74621;BME280;64861;47.546;19.254;2022-12-07T07:49:15;99023.81;;;21.71;47.54
74621;BME280;64861;47.546;19.254;2022-12-07T07:51:40;99020.97;;;21.49;46.33
74621;BME280;64861;47.546;19.254;2022-12-07T07:54:06;99023.34;;;21.28;48.97
74621;BME280;64861;47.546;19.254;2022-12-07T07:56:31;99020.84;;;21.43;48.80
74621;BME280;64861;47.546;19.254;2022-12-07T07:58:56;99023.56;;;21.57;48.65
74621;BME280;64861;47.546;19.254;2022-12-07T08:01:22;99019.66;;;21.68;48.87
74621;BME280;64861;47.546;19.254;2022-12-07T08:03:47;99028.13;;;21.72;48.61
74621;BME280;64861;47.546;19.254;2022-12-07T08:06:13;99030.63;;;21.73;47.84
74621;BME280;64861;47.546;19.254;2022-12-07T08:08:39;99024.00;;;21.69;49.22
74621;BME280;64861;47.546;19.254;2022-12-07T08:11:05;99030.91;;;21.78;47.91
74621;BME280;64861;47.546;19.254;2022-12-07T08:13:31;99030.91;;;21.78;49.12
74621;BME280;64861;47.546;19.254;2022-12-07T08:15:56;99031.41;;;21.82;49.12
74621;BME280;64861;47.546;19.254;2022-12-07T08:18:21;99033.41;;;21.80;48.99
74621;BME280;64861;47.546;19.254;2022-12-07T08:20:47;99030.06;;;21.78;48.72
74621;BME280;64861;47.546;19.254;2022-12-07T08:23:12;99032.56;;;21.79;48.93
74621;BME280;64861;47.546;19.254;2022-12-07T08:25:38;99029.56;;;21.83;48.08
74621;BME280;64861;47.546;19.254;2022-12-07T08:28:04;99031.25;;;21.75;49.16
74621;BME280;64861;47.546;19.254;2022-12-07T08:30:29;99036.88;;;21.80;47.57
74621;BME280;64861;47.546;19.254;2022-12-07T08:32:56;99037.78;;;21.73;47.90
74621;BME280;64861;47.546;19.254;2022-12-07T08:35:21;99047.06;;;21.77;47.81
74621;BME280;64861;47.546;19.254;2022-12-07T08:37:47;99049.00;;;21.83;47.08
74621;BME280;64861;47.546;19.254;2022-12-07T08:40:13;99050.31;;;21.87;47.30
74621;BME280;64861;47.546;19.254;2022-12-07T08:42:50;99050.13;;;21.66;48.48
74621;BME280;64861;47.546;19.254;2022-12-07T08:45:16;99048.09;;;21.68;47.43
74621;BME280;64861;47.546;19.254;2022-12-07T08:47:47;99045.56;;;21.74;49.76
74621;BME280;64861;47.546;19.254;2022-12-07T08:50:16;99045.88;;;21.79;48.92
74621;BME280;64861;47.546;19.254;2022-12-07T08:52:42;99038.38;;;21.83;48.72
74621;BME280;64861;47.546;19.254;2022-12-07T08:55:10;99048.00;;;21.84;48.86
74621;BME280;64861;47.546;19.254;2022-12-07T08:57:36;99049.47;;;21.87;48.23
74621;BME280;64861;47.546;19.254;2022-12-07T09:00:04;99050.66;;;21.84;47.61
74621;BME280;64861;47.546;19.254;2022-12-07T09:02:30;99052.94;;;21.95;47.52
74621;BME280;64861;47.546;19.254;2022-12-07T09:04:56;99058.41;;;21.94;48.02
74621;BME280;64861;47.546;19.254;2022-12-07T09:07:21;99052.63;;;21.90;47.47
74621;BME280;64861;47.546;19.254;2022-12-07T09:09:47;99047.00;;;21.85;47.54
74621;BME280;64861;47.546;19.254;2022-12-07T09:12:12;99043.63;;;21.91;47.97
74621;BME280;64861;47.546;19.254;2022-12-07T09:14:37;99041.16;;;21.90;47.50
74621;BME280;64861;47.546;19.254;2022-12-07T09:17:08;99041.16;;;21.90;47.57
74621;BME280;64861;47.546;19.254;2022-12-07T09:19:33;99036.66;;;21.90;47.41
74621;BME280;64861;47.546;19.254;2022-12-07T09:21:59;99037.47;;;21.91;47.56
74621;BME280;64861;47.546;19.254;2022-12-07T09:24:24;99029.47;;;21.99;47.19
74621;BME280;64861;47.546;19.254;2022-12-07T09:26:50;99015.72;;;21.87;48.76
74621;BME280;64861;47.546;19.254;2022-12-07T09:29:15;99023.47;;;21.97;46.97
74621;BME280;64861;47.546;19.254;2022-12-07T09:31:40;99023.34;;;21.90;47.36
74621;BME280;64861;47.546;19.254;2022-12-07T09:34:06;99021.41;;;21.84;46.06
74621;BME280;64861;47.546;19.254;2022-12-07T09:36:32;99025.56;;;21.16;45.69
74621;BME280;64861;47.546;19.254;2022-12-07T09:38:58;99025.50;;;20.93;47.52
74621;BME280;64861;47.546;19.254;2022-12-07T09:41:25;99019.69;;;20.81;48.44
74621;BME280;64861;47.546;19.254;2022-12-07T09:43:53;99021.53;;;20.81;48.63
74621;BME280;64861;47.546;19.254;2022-12-07T09:46:23;99017.88;;;20.90;48.37
74621;BME280;64861;47.546;19.254;2022-12-07T09:48:50;99013.38;;;20.82;48.81
74621;BME280;64861;47.546;19.254;2022-12-07T09:51:19;99015.56;;;20.79;49.09
74621;BME280;64861;47.546;19.254;2022-12-07T09:53:45;99017.38;;;20.78;49.31
74621;BME280;64861;47.546;19.254;2022-12-07T09:56:13;99015.59;;;20.71;50.01
74621;BME280;64861;47.546;19.254;2022-12-07T09:58:39;99011.22;;;20.86;50.18
74621;BME280;64861;47.546;19.254;2022-12-07T10:03:38;99004.00;;;21.11;50.04
74621;BME280;64861;47.546;19.254;2022-12-07T10:06:05;99008.75;;;21.24;50.20
74621;BME280;64861;47.546;19.254;2022-12-07T10:08:32;99001.75;;;21.31;50.07
74621;BME280;64861;47.546;19.254;2022-12-07T10:10:59;99002.56;;;21.31;49.86
74621;BME280;64861;47.546;19.254;2022-12-07T10:13:39;98991.81;;;21.25;49.95
74621;BME280;64861;47.546;19.254;2022-12-07T10:16:07;98984.16;;;21.22;50.40
74621;BME280;64861;47.546;19.254;2022-12-07T10:18:53;98982.94;;;21.09;51.50
74621;BME280;64861;47.546;19.254;2022-12-07T10:21:24;98974.50;;;20.98;51.33
74621;BME280;64861;47.546;19.254;2022-12-07T10:24:22;98983.81;;;20.94;51.92
74621;BME280;64861;47.546;19.254;2022-12-07T10:31:53;98989.56;;;21.05;51.06
74621;BME280;64861;47.546;19.254;2022-12-07T10:34:29;98989.56;;;21.05;51.65
74621;BME280;64861;47.546;19.254;2022-12-07T10:42:23;98991.25;;;21.06;51.74
74621;BME280;64861;47.546;19.254;2022-12-07T10:45:06;98984.91;;;21.07;52.69
74621;BME280;64861;47.546;19.254;2022-12-07T10:48:19;98985.13;;;20.98;52.70
74621;BME280;64861;47.546;19.254;2022-12-07T10:53:54;98977.00;;;20.91;52.61
74621;BME280;64861;47.546;19.254;2022-12-07T10:59:19;98964.56;;;20.92;52.27
74621;BME280;64861;47.546;19.254;2022-12-07T11:08:01;98980.00;;;20.88;52.51
74621;BME280;64861;47.546;19.254;2022-12-07T11:16:02;98975.50;;;20.88;52.94
74621;BME280;64861;47.546;19.254;2022-12-07T11:22:00;98965.09;;;20.79;53.15
74621;BME280;64861;47.546;19.254;2022-12-07T11:38:18;98952.13;;;20.84;54.36
74621;BME280;64861;47.546;19.254;2022-12-07T11:40:51;98943.78;;;20.95;54.27
74621;BME280;64861;47.546;19.254;2022-12-07T11:43:26;98948.06;;;21.04;54.25
74621;BME280;64861;47.546;19.254;2022-12-07T11:46:09;98952.03;;;21.08;54.03
74621;BME280;64861;47.546;19.254;2022-12-07T11:48:45;98949.16;;;21.18;53.83
74621;BME280;64861;47.546;19.254;2022-12-07T11:51:12;98949.16;;;21.18;54.00
74621;BME280;64861;47.546;19.254;2022-12-07T11:53:47;98947.72;;;21.07;53.98
74621;BME280;64861;47.546;19.254;2022-12-07T11:56:17;98958.88;;;21.03;54.07
74621;BME280;64861;47.546;19.254;2022-12-07T12:06:37;98958.47;;;20.83;54.73
74621;BME280;64861;47.546;19.254;2022-12-07T12:22:15;98931.72;;;20.84;54.75
74621;BME280;64861;47.546;19.254;2022-12-07T12:24:43;98931.03;;;20.82;54.61
74621;BME280;64861;47.546;19.254;2022-12-07T12:27:20;98927.91;;;20.79;54.95
74621;BME280;64861;47.546;19.254;2022-12-07T12:29:53;98923.47;;;20.71;55.12
74621;BME280;64861;47.546;19.254;2022-12-07T12:32:39;98917.97;;;20.73;55.03
74621;BME280;64861;47.546;19.254;2022-12-07T12:35:28;98919.66;;;20.74;54.89
74621;BME280;64861;47.546;19.254;2022-12-07T12:38:31;98923.66;;;20.70;55.04
74621;BME280;64861;47.546;19.254;2022-12-07T12:40:59;98907.22;;;20.66;55.08
74621;BME280;64861;47.546;19.254;2022-12-07T12:43:46;98901.19;;;20.80;55.12
74621;BME280;64861;47.546;19.254;2022-12-07T12:54:19;98907.41;;;21.27;54.73
74621;BME280;64861;47.546;19.254;2022-12-07T12:56:53;98906.56;;;21.34;54.53
74621;BME280;64861;47.546;19.254;2022-12-07T13:01:47;98918.56;;;21.53;54.73
74621;BME280;64861;47.546;19.254;2022-12-07T13:04:21;98918.16;;;21.33;55.47
74621;BME280;64861;47.546;19.254;2022-12-07T13:06:49;98915.16;;;21.05;55.81
74621;BME280;64861;47.546;19.254;2022-12-07T13:09:29;98920.81;;;21.02;55.83
74621;BME280;64861;47.546;19.254;2022-12-07T13:12:01;98915.03;;;20.99;55.77
74621;BME280;64861;47.546;19.254;2022-12-07T13:20:02;98921.03;;;21.01;55.38
74621;BME280;64861;47.546;19.254;2022-12-07T13:27:31;98932.41;;;20.78;55.93
74621;BME280;64861;47.546;19.254;2022-12-07T13:29:58;98933.88;;;20.81;55.77
74621;BME280;64861;47.546;19.254;2022-12-07T13:32:25;98933.72;;;20.82;55.80
74621;BME280;64861;47.546;19.254;2022-12-07T13:34:51;98937.97;;;20.36;48.20
74621;BME280;64861;47.546;19.254;2022-12-07T13:37:30;98932.94;;;17.72;54.52
74621;BME280;64861;47.546;19.254;2022-12-07T13:39:59;98935.25;;;17.57;54.36
74621;BME280;64861;47.546;19.254;2022-12-07T13:42:33;98935.50;;;16.26;53.23
74621;BME280;64861;47.546;19.254;2022-12-07T13:45:01;98932.47;;;17.23;52.13
74621;BME280;64861;47.546;19.254;2022-12-07T13:47:52;98933.91;;;17.89;48.96
74621;BME280;64861;47.546;19.254;2022-12-07T13:50:30;98936.84;;;18.90;52.59
74621;BME280;64861;47.546;19.254;2022-12-07T13:52:58;98941.13;;;19.49;52.13
74621;BME280;64861;47.546;19.254;2022-12-07T13:55:25;98939.69;;;19.80;52.23
74621;BME280;64861;47.546;19.254;2022-12-07T13:57:53;98939.03;;;19.94;52.17
74621;BME280;64861;47.546;19.254;2022-12-07T14:00:21;98942.50;;;20.03;52.00
74621;BME280;64861;47.546;19.254;2022-12-07T14:03:02;98942.16;;;20.06;52.39
74621;BME280;64861;47.546;19.254;2022-12-07T14:05:30;98950.63;;;20.17;53.05
74621;BME280;64861;47.546;19.254;2022-12-07T14:08:01;98949.81;;;20.17;52.43
74621;BME280;64861;47.546;19.254;2022-12-07T14:10:34;98949.63;;;20.10;52.82
74621;BME280;64861;47.546;19.254;2022-12-07T14:13:02;98948.44;;;20.13;52.93
74621;BME280;64861;47.546;19.254;2022-12-07T14:15:33;98949.97;;;20.24;53.11
74621;BME280;64861;47.546;19.254;2022-12-07T14:18:01;98947.63;;;20.21;53.45
74621;BME280;64861;47.546;19.254;2022-12-07T14:20:37;98945.63;;;20.23;53.61
74621;BME280;64861;47.546;19.254;2022-12-07T14:23:04;98951.78;;;20.23;53.53
74621;BME280;64861;47.546;19.254;2022-12-07T14:25:51;98940.31;;;20.31;53.69
74621;BME280;64861;47.546;19.254;2022-12-07T14:28:33;98933.63;;;18.18;45.37
74621;BME280;64861;47.546;19.254;2022-12-07T14:31:00;98935.00;;;18.82;53.47
74621;BME280;64861;47.546;19.254;2022-12-07T14:33:26;98950.13;;;19.81;53.70
74621;BME280;64861;47.546;19.254;2022-12-07T14:35:54;98948.63;;;20.28;52.61
74621;BME280;64861;47.546;19.254;2022-12-07T14:38:21;98947.41;;;20.63;51.95
74621;BME280;64861;47.546;19.254;2022-12-07T14:40:48;98946.22;;;20.74;51.89
74621;BME280;64861;47.546;19.254;2022-12-07T14:43:15;98951.63;;;20.88;52.00
74621;BME280;64861;47.546;19.254;2022-12-07T14:45:41;98948.47;;;20.93;52.06
74621;BME280;64861;47.546;19.254;2022-12-07T14:48:15;98959.91;;;20.94;52.52
74621;BME280;64861;47.546;19.254;2022-12-07T14:50:51;98960.44;;;20.81;53.59
74621;BME280;64861;47.546;19.254;2022-12-07T14:53:22;98959.31;;;19.28;52.47
74621;BME280;64861;47.546;19.254;2022-12-07T14:55:53;98964.22;;;19.90;54.56